sensor_id;sensor_type;location;lat;lon;timestamp;P1;durP1;ratioP1;P2;durP2;ratioP2
10991;SDS011;5549;47.028;15.514;2023-12-07T00:00:49;15.57;;;7.25;;
10991;SDS011;5549;47.028;15.514;2023-12-07T00:03:20;15.68;;;7.60;;
10991;SDS011;5549;47.028;15.514;2023-12-07T00:05:51;13.32;;;6.90;;
10991;SDS011;5549;47.028;15.514;2023-12-07T00:08:18;15.73;;;6.78;;
10991;SDS011;5549;47.028;15.514;2023-12-07T00:10:46;16.70;;;8.38;;
10991;SDS011;5549;47.028;15.514;2023-12-07T00:13:13;15.65;;;8.07;;
10991;SDS011;5549;47.028;15.514;2023-12-07T00:15:41;25.42;;;7.57;;
10991;SDS011;5549;47.028;15.514;2023-12-07T00:18:13;15.30;;;7.15;;
10991;SDS011;5549;47.028;15.514;2023-12-07T00:20:43;12.35;;;6.95;;
10991;SDS011;5549;47.028;15.514;2023-12-07T00:23:20;12.15;;;6.38;;
10991;SDS011;5549;47.028;15.514;2023-12-07T00:25:49;16.25;;;7.20;;
10991;SDS011;5549;47.028;15.514;2023-12-07T00:28:18;13.43;;;6.45;;
10991;SDS011;5549;47.028;15.514;2023-12-07T00:30:46;13.85;;;6.72;;
10991;SDS011;5549;47.028;15.514;2023-12-07T00:33:15;12.93;;;7.13;;
10991;SDS011;5549;47.028;15.514;2023-12-07T00:35:43;27.67;;;7.45;;
10991;SDS011;5549;47.028;15.514;2023-12-07T00:38:13;14.57;;;6.22;;
10991;SDS011;5549;47.028;15.514;2023-12-07T00:40:42;17.60;;;6.18;;
10991;SDS011;5549;47.028;15.514;2023-12-07T00:43:10;37.97;;;6.57;;
10991;SDS011;5549;47.028;15.514;2023-12-07T00:45:38;15.95;;;7.18;;
10991;SDS011;5549;47.028;15.514;2023-12-07T00:48:06;23.15;;;5.82;;
10991;SDS011;5549;47.028;15.514;2023-12-07T00:50:35;25.75;;;6.50;;
10991;SDS011;5549;47.028;15.514;2023-12-07T00:53:06;50.45;;;6.43;;
10991;SDS011;5549;47.028;15.514;2023-12-07T00:55:34;32.58;;;5.85;;
10991;SDS011;5549;47.028;15.514;2023-12-07T00:58:01;67.65;;;5.70;;
10991;SDS011;5549;47.028;15.514;2023-12-07T01:00:31;8.63;;;4.32;;
10991;SDS011;5549;47.028;15.514;2023-12-07T01:02:59;66.78;;;4.95;;
10991;SDS011;5549;47.028;15.514;2023-12-07T01:05:29;36.70;;;4.47;;
10991;SDS011;5549;47.028;15.514;2023-12-07T01:07:58;43.60;;;4.72;;
10991;SDS011;5549;47.028;15.514;2023-12-07T01:10:25;21.35;;;5.60;;
10991;SDS011;5549;47.028;15.514;2023-12-07T01:12:53;47.28;;;5.63;;
10991;SDS011;5549;47.028;15.514;2023-12-07T01:15:24;22.70;;;4.45;;
10991;SDS011;5549;47.028;15.514;2023-12-07T01:17:51;31.48;;;5.35;;
10991;SDS011;5549;47.028;15.514;2023-12-07T01:20:19;11.95;;;4.57;;
10991;SDS011;5549;47.028;15.514;2023-12-07T01:22:47;11.70;;;4.97;;
10991;SDS011;5549;47.028;15.514;2023-12-07T01:25:16;20.27;;;4.53;;
10991;SDS011;5549;47.028;15.514;2023-12-07T01:27:48;31.77;;;3.75;;
10991;SDS011;5549;47.028;15.514;2023-12-07T01:30:16;17.60;;;3.80;;
10991;SDS011;5549;47.028;15.514;2023-12-07T01:32:44;14.77;;;4.20;;
10991;SDS011;5549;47.028;15.514;2023-12-07T01:35:12;125.32;;;7.10;;
10991;SDS011;5549;47.028;15.514;2023-12-07T01:37:40;31.98;;;3.15;;
10991;SDS011;5549;47.028;15.514;2023-12-07T01:40:08;23.38;;;4.38;;
10991;SDS011;5549;47.028;15.514;2023-12-07T01:42:37;6.15;;;2.53;;
10991;SDS011;5549;47.028;15.514;2023-12-07T01:45:05;8.75;;;4.75;;
10991;SDS011;5549;47.028;15.514;2023-12-07T01:47:35;11.18;;;4.80;;
10991;SDS011;5549;47.028;15.514;2023-12-07T01:50:04;12.23;;;4.57;;
10991;SDS011;5549;47.028;15.514;2023-12-07T01:52:34;19.48;;;3.95;;
10991;SDS011;5549;47.028;15.514;2023-12-07T01:55:05;13.05;;;5.10;;
10991;SDS011;5549;47.028;15.514;2023-12-07T01:57:37;10.88;;;5.38;;
10991;SDS011;5549;47.028;15.514;2023-12-07T02:00:07;11.77;;;4.18;;
10991;SDS011;5549;47.028;15.514;2023-12-07T02:02:43;10.35;;;4.60;;
10991;SDS011;5549;47.028;15.514;2023-12-07T02:05:14;5.70;;;2.30;;
10991;SDS011;5549;47.028;15.514;2023-12-07T02:07:45;11.30;;;4.13;;
10991;SDS011;5549;47.028;15.514;2023-12-07T02:10:14;8.82;;;4.07;;
10991;SDS011;5549;47.028;15.514;2023-12-07T02:12:44;10.32;;;4.55;;
10991;SDS011;5549;47.028;15.514;2023-12-07T02:15:13;9.90;;;4.30;;
10991;SDS011;5549;47.028;15.514;2023-12-07T02:17:44;10.60;;;4.50;;
10991;SDS011;5549;47.028;15.514;2023-12-07T02:20:37;13.13;;;4.78;;
10991;SDS011;5549;47.028;15.514;2023-12-07T02:23:09;9.40;;;4.18;;
10991;SDS011;5549;47.028;15.514;2023-12-07T02:25:43;9.88;;;4.13;;
10991;SDS011;5549;47.028;15.514;2023-12-07T02:28:56;8.82;;;3.92;;
10991;SDS011;5549;47.028;15.514;2023-12-07T02:31:24;9.60;;;4.22;;
10991;SDS011;5549;47.028;15.514;2023-12-07T02:33:51;11.93;;;4.75;;
10991;SDS011;5549;47.028;15.514;2023-12-07T02:36:19;9.57;;;3.67;;
10991;SDS011;5549;47.028;15.514;2023-12-07T02:38:51;9.75;;;4.28;;
10991;SDS011;5549;47.028;15.514;2023-12-07T02:41:22;27.23;;;5.22;;
10991;SDS011;5549;47.028;15.514;2023-12-07T02:43:52;9.85;;;4.15;;
10991;SDS011;5549;47.028;15.514;2023-12-07T02:46:21;11.00;;;4.10;;
10991;SDS011;5549;47.028;15.514;2023-12-07T02:48:48;7.13;;;3.72;;
10991;SDS011;5549;47.028;15.514;2023-12-07T02:51:17;13.30;;;4.88;;
10991;SDS011;5549;47.028;15.514;2023-12-07T02:53:45;20.38;;;3.92;;
10991;SDS011;5549;47.028;15.514;2023-12-07T02:56:15;15.52;;;3.63;;
10991;SDS011;5549;47.028;15.514;2023-12-07T02:58:43;9.13;;;3.47;;
10991;SDS011;5549;47.028;15.514;2023-12-07T03:01:11;9.50;;;3.88;;
10991;SDS011;5549;47.028;15.514;2023-12-07T03:03:40;20.33;;;4.45;;
10991;SDS011;5549;47.028;15.514;2023-12-07T03:06:08;8.75;;;4.20;;
10991;SDS011;5549;47.028;15.514;2023-12-07T03:08:36;7.88;;;3.47;;
10991;SDS011;5549;47.028;15.514;2023-12-07T03:11:05;8.02;;;3.63;;
10991;SDS011;5549;47.028;15.514;2023-12-07T03:13:34;8.23;;;3.25;;
10991;SDS011;5549;47.028;15.514;2023-12-07T03:16:06;8.25;;;3.40;;
10991;SDS011;5549;47.028;15.514;2023-12-07T03:18:41;10.27;;;4.20;;
10991;SDS011;5549;47.028;15.514;2023-12-07T03:21:09;10.43;;;3.78;;
10991;SDS011;5549;47.028;15.514;2023-12-07T03:23:36;5.40;;;2.30;;
10991;SDS011;5549;47.028;15.514;2023-12-07T03:26:06;6.00;;;3.10;;
10991;SDS011;5549;47.028;15.514;2023-12-07T03:28:37;11.05;;;3.92;;
10991;SDS011;5549;47.028;15.514;2023-12-07T03:31:08;27.80;;;3.90;;
10991;SDS011;5549;47.028;15.514;2023-12-07T03:33:36;49.97;;;4.85;;
10991;SDS011;5549;47.028;15.514;2023-12-07T03:36:06;15.02;;;4.50;;
10991;SDS011;5549;47.028;15.514;2023-12-07T03:38:42;8.80;;;4.07;;
10991;SDS011;5549;47.028;15.514;2023-12-07T03:41:10;2.05;;;1.23;;
10991;SDS011;5549;47.028;15.514;2023-12-07T03:43:38;7.78;;;3.65;;
10991;SDS011;5549;47.028;15.514;2023-12-07T03:46:06;16.10;;;3.33;;
10991;SDS011;5549;47.028;15.514;2023-12-07T03:48:34;15.43;;;2.63;;
10991;SDS011;5549;47.028;15.514;2023-12-07T03:51:03;24.17;;;3.55;;
10991;SDS011;5549;47.028;15.514;2023-12-07T03:53:32;16.73;;;4.03;;
10991;SDS011;5549;47.028;15.514;2023-12-07T03:56:06;18.00;;;4.13;;
10991;SDS011;5549;47.028;15.514;2023-12-07T03:58:36;15.23;;;3.95;;
10991;SDS011;5549;47.028;15.514;2023-12-07T04:01:04;12.35;;;2.72;;
10991;SDS011;5549;47.028;15.514;2023-12-07T04:03:32;33.25;;;5.25;;
10991;SDS011;5549;47.028;15.514;2023-12-07T04:06:01;9.23;;;4.40;;
10991;SDS011;5549;47.028;15.514;2023-12-07T04:08:32;7.10;;;2.97;;
10991;SDS011;5549;47.028;15.514;2023-12-07T04:11:01;8.57;;;3.67;;
10991;SDS011;5549;47.028;15.514;2023-12-07T04:13:28;7.10;;;2.97;;
10991;SDS011;5549;47.028;15.514;2023-12-07T04:15:56;8.45;;;3.60;;
10991;SDS011;5549;47.028;15.514;2023-12-07T04:18:23;16.45;;;4.47;;
10991;SDS011;5549;47.028;15.514;2023-12-07T04:20:52;6.68;;;2.55;;
10991;SDS011;5549;47.028;15.514;2023-12-07T04:23:19;7.68;;;3.25;;
10991;SDS011;5549;47.028;15.514;2023-12-07T04:25:49;7.25;;;3.60;;
10991;SDS011;5549;47.028;15.514;2023-12-07T04:28:17;8.80;;;3.85;;
10991;SDS011;5549;47.028;15.514;2023-12-07T04:30:46;13.68;;;3.55;;
10991;SDS011;5549;47.028;15.514;2023-12-07T04:33:15;7.72;;;2.90;;
10991;SDS011;5549;47.028;15.514;2023-12-07T04:35:43;3.38;;;1.80;;
10991;SDS011;5549;47.028;15.514;2023-12-07T04:38:11;8.10;;;3.65;;
10991;SDS011;5549;47.028;15.514;2023-12-07T04:40:39;6.90;;;2.72;;
10991;SDS011;5549;47.028;15.514;2023-12-07T04:43:10;7.97;;;3.33;;
10991;SDS011;5549;47.028;15.514;2023-12-07T04:45:37;2.95;;;1.33;;
10991;SDS011;5549;47.028;15.514;2023-12-07T04:48:05;6.95;;;2.95;;
10991;SDS011;5549;47.028;15.514;2023-12-07T04:50:33;8.68;;;3.83;;
10991;SDS011;5549;47.028;15.514;2023-12-07T04:53:01;7.03;;;3.45;;
10991;SDS011;5549;47.028;15.514;2023-12-07T04:55:29;6.20;;;2.90;;
10991;SDS011;5549;47.028;15.514;2023-12-07T04:57:57;8.27;;;3.08;;
10991;SDS011;5549;47.028;15.514;2023-12-07T05:00:27;7.40;;;3.50;;
10991;SDS011;5549;47.028;15.514;2023-12-07T05:02:55;7.53;;;3.22;;
10991;SDS011;5549;47.028;15.514;2023-12-07T05:05:25;9.20;;;3.20;;
10991;SDS011;5549;47.028;15.514;2023-12-07T05:07:55;6.65;;;3.00;;
10991;SDS011;5549;47.028;15.514;2023-12-07T05:10:22;5.28;;;2.60;;
10991;SDS011;5549;47.028;15.514;2023-12-07T05:12:50;6.28;;;3.10;;
10991;SDS011;5549;47.028;15.514;2023-12-07T05:15:18;6.78;;;3.45;;
10991;SDS011;5549;47.028;15.514;2023-12-07T05:18:11;7.03;;;2.67;;
10991;SDS011;5549;47.028;15.514;2023-12-07T05:20:39;6.75;;;3.55;;
10991;SDS011;5549;47.028;15.514;2023-12-07T05:23:09;6.40;;;2.78;;
10991;SDS011;5549;47.028;15.514;2023-12-07T05:25:37;6.03;;;2.15;;
10991;SDS011;5549;47.028;15.514;2023-12-07T05:28:05;8.25;;;3.13;;
10991;SDS011;5549;47.028;15.514;2023-12-07T05:30:35;9.45;;;3.15;;
10991;SDS011;5549;47.028;15.514;2023-12-07T05:33:03;6.57;;;2.83;;
10991;SDS011;5549;47.028;15.514;2023-12-07T05:35:32;5.55;;;2.60;;
10991;SDS011;5549;47.028;15.514;2023-12-07T05:38:00;5.75;;;2.85;;
10991;SDS011;5549;47.028;15.514;2023-12-07T05:40:29;7.20;;;3.30;;
10991;SDS011;5549;47.028;15.514;2023-12-07T05:42:58;7.80;;;2.83;;
10991;SDS011;5549;47.028;15.514;2023-12-07T05:45:27;6.85;;;2.80;;
10991;SDS011;5549;47.028;15.514;2023-12-07T05:47:53;6.60;;;2.90;;
10991;SDS011;5549;47.028;15.514;2023-12-07T05:50:21;8.00;;;3.60;;
10991;SDS011;5549;47.028;15.514;2023-12-07T05:52:51;11.02;;;5.00;;
10991;SDS011;5549;47.028;15.514;2023-12-07T05:55:20;9.68;;;4.72;;
10991;SDS011;5549;47.028;15.514;2023-12-07T05:57:49;8.40;;;3.95;;
10991;SDS011;5549;47.028;15.514;2023-12-07T06:00:18;8.32;;;3.85;;
10991;SDS011;5549;47.028;15.514;2023-12-07T06:02:47;11.13;;;4.25;;
10991;SDS011;5549;47.028;15.514;2023-12-07T06:05:14;9.15;;;3.92;;
10991;SDS011;5549;47.028;15.514;2023-12-07T06:07:42;8.27;;;4.60;;
10991;SDS011;5549;47.028;15.514;2023-12-07T06:10:14;6.95;;;3.30;;
10991;SDS011;5549;47.028;15.514;2023-12-07T06:12:42;9.13;;;3.70;;
10991;SDS011;5549;47.028;15.514;2023-12-07T06:15:09;11.82;;;4.20;;
10991;SDS011;5549;47.028;15.514;2023-12-07T06:17:37;12.50;;;4.97;;
10991;SDS011;5549;47.028;15.514;2023-12-07T06:20:05;10.93;;;4.40;;
10991;SDS011;5549;47.028;15.514;2023-12-07T06:22:34;5.30;;;2.72;;
10991;SDS011;5549;47.028;15.514;2023-12-07T06:25:02;5.47;;;2.50;;
10991;SDS011;5549;47.028;15.514;2023-12-07T06:27:32;10.57;;;4.68;;
10991;SDS011;5549;47.028;15.514;2023-12-07T06:30:00;11.30;;;4.88;;
10991;SDS011;5549;47.028;15.514;2023-12-07T06:32:31;11.25;;;4.72;;
10991;SDS011;5549;47.028;15.514;2023-12-07T06:34:59;9.15;;;4.25;;
10991;SDS011;5549;47.028;15.514;2023-12-07T06:37:26;9.95;;;4.20;;
10991;SDS011;5549;47.028;15.514;2023-12-07T06:39:54;7.80;;;3.75;;
10991;SDS011;5549;47.028;15.514;2023-12-07T06:42:21;8.50;;;3.70;;
10991;SDS011;5549;47.028;15.514;2023-12-07T06:44:50;4.43;;;1.80;;
10991;SDS011;5549;47.028;15.514;2023-12-07T06:47:18;10.68;;;4.22;;
10991;SDS011;5549;47.028;15.514;2023-12-07T06:49:45;10.25;;;4.38;;
10991;SDS011;5549;47.028;15.514;2023-12-07T06:52:15;7.90;;;3.08;;
10991;SDS011;5549;47.028;15.514;2023-12-07T06:54:43;8.65;;;3.28;;
10991;SDS011;5549;47.028;15.514;2023-12-07T06:57:10;8.93;;;3.70;;
10991;SDS011;5549;47.028;15.514;2023-12-07T06:59:38;5.97;;;2.38;;
10991;SDS011;5549;47.028;15.514;2023-12-07T07:02:07;7.63;;;2.75;;
10991;SDS011;5549;47.028;15.514;2023-12-07T07:04:35;4.40;;;1.77;;
10991;SDS011;5549;47.028;15.514;2023-12-07T07:07:02;7.03;;;2.83;;
10991;SDS011;5549;47.028;15.514;2023-12-07T07:09:30;9.80;;;3.08;;
10991;SDS011;5549;47.028;15.514;2023-12-07T07:11:58;7.32;;;3.13;;
10991;SDS011;5549;47.028;15.514;2023-12-07T07:14:26;7.90;;;3.20;;
10991;SDS011;5549;47.028;15.514;2023-12-07T07:16:53;8.15;;;3.83;;
10991;SDS011;5549;47.028;15.514;2023-12-07T07:19:22;6.97;;;3.47;;
10991;SDS011;5549;47.028;15.514;2023-12-07T07:21:50;8.48;;;2.55;;
10991;SDS011;5549;47.028;15.514;2023-12-07T07:24:17;6.07;;;2.45;;
10991;SDS011;5549;47.028;15.514;2023-12-07T07:26:44;5.22;;;1.95;;
10991;SDS011;5549;47.028;15.514;2023-12-07T07:29:12;7.00;;;2.67;;
10991;SDS011;5549;47.028;15.514;2023-12-07T07:31:40;7.40;;;2.42;;
10991;SDS011;5549;47.028;15.514;2023-12-07T07:34:07;6.13;;;2.63;;
10991;SDS011;5549;47.028;15.514;2023-12-07T07:37:01;5.57;;;2.50;;
10991;SDS011;5549;47.028;15.514;2023-12-07T07:39:28;5.47;;;2.45;;
10991;SDS011;5549;47.028;15.514;2023-12-07T07:42:20;7.38;;;3.00;;
10991;SDS011;5549;47.028;15.514;2023-12-07T07:44:48;4.93;;;2.47;;
10991;SDS011;5549;47.028;15.514;2023-12-07T07:47:39;6.38;;;2.85;;
10991;SDS011;5549;47.028;15.514;2023-12-07T07:50:12;3.97;;;1.80;;
10991;SDS011;5549;47.028;15.514;2023-12-07T07:52:41;6.63;;;2.35;;
10991;SDS011;5549;47.028;15.514;2023-12-07T07:55:11;4.00;;;2.30;;
10991;SDS011;5549;47.028;15.514;2023-12-07T07:57:39;5.95;;;2.83;;
10991;SDS011;5549;47.028;15.514;2023-12-07T08:00:08;4.65;;;2.35;;
10991;SDS011;5549;47.028;15.514;2023-12-07T08:02:39;4.38;;;1.90;;
10991;SDS011;5549;47.028;15.514;2023-12-07T08:05:06;4.07;;;1.60;;
10991;SDS011;5549;47.028;15.514;2023-12-07T08:07:34;3.35;;;1.00;;
10991;SDS011;5549;47.028;15.514;2023-12-07T08:10:04;2.80;;;1.10;;
10991;SDS011;5549;47.028;15.514;2023-12-07T08:12:34;3.22;;;1.38;;
10991;SDS011;5549;47.028;15.514;2023-12-07T08:15:09;4.38;;;1.70;;
10991;SDS011;5549;47.028;15.514;2023-12-07T08:17:37;3.65;;;1.13;;
10991;SDS011;5549;47.028;15.514;2023-12-07T08:20:08;2.92;;;1.27;;
10991;SDS011;5549;47.028;15.514;2023-12-07T08:22:38;2.10;;;0.80;;
10991;SDS011;5549;47.028;15.514;2023-12-07T08:25:07;2.00;;;0.80;;
10991;SDS011;5549;47.028;15.514;2023-12-07T08:27:38;4.57;;;1.48;;
10991;SDS011;5549;47.028;15.514;2023-12-07T08:30:07;2.85;;;1.17;;
10991;SDS011;5549;47.028;15.514;2023-12-07T08:32:36;3.35;;;1.00;;
10991;SDS011;5549;47.028;15.514;2023-12-07T08:35:08;2.03;;;0.63;;
10991;SDS011;5549;47.028;15.514;2023-12-07T08:37:37;2.25;;;0.93;;
10991;SDS011;5549;47.028;15.514;2023-12-07T08:40:05;2.75;;;0.70;;
10991;SDS011;5549;47.028;15.514;2023-12-07T08:42:37;1.73;;;0.50;;
10991;SDS011;5549;47.028;15.514;2023-12-07T08:45:05;2.00;;;0.50;;
10991;SDS011;5549;47.028;15.514;2023-12-07T08:47:36;1.50;;;0.40;;
10991;SDS011;5549;47.028;15.514;2023-12-07T08:50:28;3.38;;;1.35;;
10991;SDS011;5549;47.028;15.514;2023-12-07T08:52:56;3.90;;;1.67;;
10991;SDS011;5549;47.028;15.514;2023-12-07T08:55:25;3.40;;;1.58;;
10991;SDS011;5549;47.028;15.514;2023-12-07T08:57:53;5.55;;;1.67;;
10991;SDS011;5549;47.028;15.514;2023-12-07T09:00:22;3.78;;;1.80;;
10991;SDS011;5549;47.028;15.514;2023-12-07T09:02:51;4.63;;;2.28;;
10991;SDS011;5549;47.028;15.514;2023-12-07T09:05:18;4.80;;;2.40;;
10991;SDS011;5549;47.028;15.514;2023-12-07T09:07:46;7.22;;;2.60;;
10991;SDS011;5549;47.028;15.514;2023-12-07T09:10:14;7.88;;;3.92;;
10991;SDS011;5549;47.028;15.514;2023-12-07T09:12:45;8.73;;;4.20;;
10991;SDS011;5549;47.028;15.514;2023-12-07T09:15:12;5.32;;;3.17;;
10991;SDS011;5549;47.028;15.514;2023-12-07T09:17:42;5.43;;;2.42;;
10991;SDS011;5549;47.028;15.514;2023-12-07T09:20:10;5.25;;;2.53;;
10991;SDS011;5549;47.028;15.514;2023-12-07T09:22:40;4.93;;;2.20;;
10991;SDS011;5549;47.028;15.514;2023-12-07T09:25:10;4.53;;;1.95;;
10991;SDS011;5549;47.028;15.514;2023-12-07T09:27:38;4.22;;;1.55;;
10991;SDS011;5549;47.028;15.514;2023-12-07T09:30:08;4.90;;;1.48;;
10991;SDS011;5549;47.028;15.514;2023-12-07T09:32:37;8.35;;;1.90;;
10991;SDS011;5549;47.028;15.514;2023-12-07T09:35:06;2.03;;;0.63;;
10991;SDS011;5549;47.028;15.514;2023-12-07T09:37:40;3.28;;;0.93;;
10991;SDS011;5549;47.028;15.514;2023-12-07T09:40:07;2.55;;;0.88;;
10991;SDS011;5549;47.028;15.514;2023-12-07T09:42:41;4.38;;;0.70;;
10991;SDS011;5549;47.028;15.514;2023-12-07T09:45:11;1.95;;;0.60;;
10991;SDS011;5549;47.028;15.514;2023-12-07T09:47:39;2.28;;;0.45;;
10991;SDS011;5549;47.028;15.514;2023-12-07T09:50:08;2.60;;;0.55;;
10991;SDS011;5549;47.028;15.514;2023-12-07T09:52:37;1.83;;;0.50;;
10991;SDS011;5549;47.028;15.514;2023-12-07T09:55:05;1.92;;;0.52;;
10991;SDS011;5549;47.028;15.514;2023-12-07T09:57:35;3.50;;;0.55;;
10991;SDS011;5549;47.028;15.514;2023-12-07T10:00:04;1.65;;;0.52;;
10991;SDS011;5549;47.028;15.514;2023-12-07T10:02:37;1.92;;;0.70;;
10991;SDS011;5549;47.028;15.514;2023-12-07T10:05:06;1.83;;;0.70;;
10991;SDS011;5549;47.028;15.514;2023-12-07T10:07:36;1.55;;;0.40;;
10991;SDS011;5549;47.028;15.514;2023-12-07T10:10:07;2.05;;;0.50;;
10991;SDS011;5549;47.028;15.514;2023-12-07T10:12:44;1.85;;;0.50;;
10991;SDS011;5549;47.028;15.514;2023-12-07T10:15:14;2.72;;;0.70;;
10991;SDS011;5549;47.028;15.514;2023-12-07T10:17:46;2.55;;;0.70;;
10991;SDS011;5549;47.028;15.514;2023-12-07T10:20:16;2.38;;;0.35;;
10991;SDS011;5549;47.028;15.514;2023-12-07T10:22:45;1.38;;;0.32;;
10991;SDS011;5549;47.028;15.514;2023-12-07T10:25:12;2.08;;;0.45;;
10991;SDS011;5549;47.028;15.514;2023-12-07T10:27:42;3.28;;;1.00;;
10991;SDS011;5549;47.028;15.514;2023-12-07T10:30:11;2.03;;;0.63;;
10991;SDS011;5549;47.028;15.514;2023-12-07T10:32:39;1.30;;;0.30;;
10991;SDS011;5549;47.028;15.514;2023-12-07T10:35:09;1.42;;;0.22;;
10991;SDS011;5549;47.028;15.514;2023-12-07T10:37:36;1.10;;;0.30;;
10991;SDS011;5549;47.028;15.514;2023-12-07T10:40:04;1.17;;;0.20;;
10991;SDS011;5549;47.028;15.514;2023-12-07T10:42:33;1.30;;;0.20;;
10991;SDS011;5549;47.028;15.514;2023-12-07T10:45:05;1.65;;;0.20;;
10991;SDS011;5549;47.028;15.514;2023-12-07T10:47:35;2.42;;;0.50;;
10991;SDS011;5549;47.028;15.514;2023-12-07T10:50:05;1.60;;;0.40;;
10991;SDS011;5549;47.028;15.514;2023-12-07T10:52:39;2.42;;;0.30;;
10991;SDS011;5549;47.028;15.514;2023-12-07T10:55:15;2.10;;;0.40;;
10991;SDS011;5549;47.028;15.514;2023-12-07T10:57:47;1.45;;;0.25;;
10991;SDS011;5549;47.028;15.514;2023-12-07T11:00:15;1.65;;;0.40;;
10991;SDS011;5549;47.028;15.514;2023-12-07T11:02:44;1.02;;;0.20;;
10991;SDS011;5549;47.028;15.514;2023-12-07T11:05:14;1.88;;;0.40;;
10991;SDS011;5549;47.028;15.514;2023-12-07T11:07:47;1.67;;;0.22;;
10991;SDS011;5549;47.028;15.514;2023-12-07T11:10:30;0.82;;;0.20;;
10991;SDS011;5549;47.028;15.514;2023-12-07T11:13:05;1.38;;;0.30;;
10991;SDS011;5549;47.028;15.514;2023-12-07T11:15:41;0.85;;;0.20;;
10991;SDS011;5549;47.028;15.514;2023-12-07T11:18:09;1.17;;;0.30;;
10991;SDS011;5549;47.028;15.514;2023-12-07T11:20:41;0.75;;;0.20;;
10991;SDS011;5549;47.028;15.514;2023-12-07T11:23:11;3.38;;;0.30;;
10991;SDS011;5549;47.028;15.514;2023-12-07T11:25:42;1.10;;;0.20;;
10991;SDS011;5549;47.028;15.514;2023-12-07T11:28:11;1.25;;;0.20;;
10991;SDS011;5549;47.028;15.514;2023-12-07T11:30:41;2.22;;;0.38;;
10991;SDS011;5549;47.028;15.514;2023-12-07T11:33:10;2.47;;;0.93;;
10991;SDS011;5549;47.028;15.514;2023-12-07T11:38:35;2.63;;;0.30;;
10991;SDS011;5549;47.028;15.514;2023-12-07T11:41:03;2.28;;;0.40;;
10991;SDS011;5549;47.028;15.514;2023-12-07T11:43:41;1.95;;;0.40;;
10991;SDS011;5549;47.028;15.514;2023-12-07T11:46:12;1.48;;;0.30;;
10991;SDS011;5549;47.028;15.514;2023-12-07T11:48:45;1.58;;;0.20;;
10991;SDS011;5549;47.028;15.514;2023-12-07T11:51:16;2.50;;;0.40;;
10991;SDS011;5549;47.028;15.514;2023-12-07T11:53:44;2.22;;;0.40;;
10991;SDS011;5549;47.028;15.514;2023-12-07T11:56:14;1.77;;;0.30;;
10991;SDS011;5549;47.028;15.514;2023-12-07T11:58:46;2.08;;;0.28;;
10991;SDS011;5549;47.028;15.514;2023-12-07T12:01:14;3.33;;;0.30;;
10991;SDS011;5549;47.028;15.514;2023-12-07T12:03:43;1.58;;;0.25;;
10991;SDS011;5549;47.028;15.514;2023-12-07T12:06:11;1.83;;;0.30;;
10991;SDS011;5549;47.028;15.514;2023-12-07T12:08:41;1.52;;;0.25;;
10991;SDS011;5549;47.028;15.514;2023-12-07T12:11:08;3.63;;;0.40;;
10991;SDS011;5549;47.028;15.514;2023-12-07T12:13:35;2.08;;;0.35;;
10991;SDS011;5549;47.028;15.514;2023-12-07T12:16:06;1.05;;;0.30;;
10991;SDS011;5549;47.028;15.514;2023-12-07T12:18:35;2.13;;;0.50;;
10991;SDS011;5549;47.028;15.514;2023-12-07T12:21:04;1.85;;;0.38;;
10991;SDS011;5549;47.028;15.514;2023-12-07T12:23:34;1.92;;;0.35;;
10991;SDS011;5549;47.028;15.514;2023-12-07T12:26:04;1.13;;;0.20;;
10991;SDS011;5549;47.028;15.514;2023-12-07T12:28:35;1.40;;;0.20;;
10991;SDS011;5549;47.028;15.514;2023-12-07T12:31:07;1.25;;;0.30;;
10991;SDS011;5549;47.028;15.514;2023-12-07T12:33:37;1.35;;;0.38;;
10991;SDS011;5549;47.028;15.514;2023-12-07T12:36:07;2.60;;;0.63;;
10991;SDS011;5549;47.028;15.514;2023-12-07T12:38:36;1.90;;;0.13;;
10991;SDS011;5549;47.028;15.514;2023-12-07T12:41:05;1.00;;;0.20;;
10991;SDS011;5549;47.028;15.514;2023-12-07T12:43:34;1.50;;;0.30;;
10991;SDS011;5549;47.028;15.514;2023-12-07T12:46:01;2.40;;;0.28;;
10991;SDS011;5549;47.028;15.514;2023-12-07T12:48:30;1.60;;;0.30;;
10991;SDS011;5549;47.028;15.514;2023-12-07T12:50:57;1.40;;;0.25;;
10991;SDS011;5549;47.028;15.514;2023-12-07T12:53:33;0.88;;;0.10;;
10991;SDS011;5549;47.028;15.514;2023-12-07T12:56:01;2.75;;;0.25;;
10991;SDS011;5549;47.028;15.514;2023-12-07T12:58:30;0.73;;;0.10;;
10991;SDS011;5549;47.028;15.514;2023-12-07T13:00:58;1.95;;;0.32;;
10991;SDS011;5549;47.028;15.514;2023-12-07T13:03:30;1.55;;;0.30;;
10991;SDS011;5549;47.028;15.514;2023-12-07T13:05:57;1.05;;;0.20;;
10991;SDS011;5549;47.028;15.514;2023-12-07T13:08:25;1.80;;;0.20;;
10991;SDS011;5549;47.028;15.514;2023-12-07T13:10:53;1.67;;;0.20;;
10991;SDS011;5549;47.028;15.514;2023-12-07T13:13:20;1.05;;;0.20;;
10991;SDS011;5549;47.028;15.514;2023-12-07T13:15:49;0.60;;;0.10;;
10991;SDS011;5549;47.028;15.514;2023-12-07T13:18:19;1.45;;;0.40;;
10991;SDS011;5549;47.028;15.514;2023-12-07T13:20:46;1.05;;;0.17;;
10991;SDS011;5549;47.028;15.514;2023-12-07T13:23:14;1.60;;;0.35;;
10991;SDS011;5549;47.028;15.514;2023-12-07T13:25:41;2.17;;;0.22;;
10991;SDS011;5549;47.028;15.514;2023-12-07T13:28:09;3.95;;;0.52;;
10991;SDS011;5549;47.028;15.514;2023-12-07T13:30:36;1.73;;;0.20;;
10991;SDS011;5549;47.028;15.514;2023-12-07T13:33:07;1.60;;;0.30;;
10991;SDS011;5549;47.028;15.514;2023-12-07T13:35:35;1.92;;;0.55;;
10991;SDS011;5549;47.028;15.514;2023-12-07T13:38:02;2.40;;;0.30;;
10991;SDS011;5549;47.028;15.514;2023-12-07T13:40:30;2.47;;;0.50;;
10991;SDS011;5549;47.028;15.514;2023-12-07T13:43:00;1.88;;;0.40;;
10991;SDS011;5549;47.028;15.514;2023-12-07T13:45:28;1.33;;;0.20;;
10991;SDS011;5549;47.028;15.514;2023-12-07T13:47:56;1.17;;;0.20;;
10991;SDS011;5549;47.028;15.514;2023-12-07T13:50:25;1.20;;;0.10;;
10991;SDS011;5549;47.028;15.514;2023-12-07T13:52:53;1.42;;;0.40;;
10991;SDS011;5549;47.028;15.514;2023-12-07T13:55:20;4.90;;;0.35;;
10991;SDS011;5549;47.028;15.514;2023-12-07T13:57:49;1.35;;;0.22;;
10991;SDS011;5549;47.028;15.514;2023-12-07T14:00:18;1.38;;;0.20;;
10991;SDS011;5549;47.028;15.514;2023-12-07T14:02:46;2.05;;;0.25;;
10991;SDS011;5549;47.028;15.514;2023-12-07T14:05:13;1.27;;;0.20;;
10991;SDS011;5549;47.028;15.514;2023-12-07T14:07:43;1.38;;;0.30;;
10991;SDS011;5549;47.028;15.514;2023-12-07T14:10:11;1.55;;;0.20;;
10991;SDS011;5549;47.028;15.514;2023-12-07T14:12:38;1.65;;;0.13;;
10991;SDS011;5549;47.028;15.514;2023-12-07T14:15:06;1.05;;;0.25;;
10991;SDS011;5549;47.028;15.514;2023-12-07T14:17:36;1.98;;;0.43;;
10991;SDS011;5549;47.028;15.514;2023-12-07T14:20:05;1.92;;;0.30;;
10991;SDS011;5549;47.028;15.514;2023-12-07T14:22:36;2.22;;;0.60;;
10991;SDS011;5549;47.028;15.514;2023-12-07T14:25:05;2.65;;;0.60;;
10991;SDS011;5549;47.028;15.514;2023-12-07T14:27:34;2.53;;;0.50;;
10991;SDS011;5549;47.028;15.514;2023-12-07T14:30:02;2.30;;;0.38;;
10991;SDS011;5549;47.028;15.514;2023-12-07T14:32:31;2.65;;;0.30;;
10991;SDS011;5549;47.028;15.514;2023-12-07T14:34:59;3.42;;;0.30;;
10991;SDS011;5549;47.028;15.514;2023-12-07T14:37:27;3.05;;;0.50;;
10991;SDS011;5549;47.028;15.514;2023-12-07T14:39:55;1.95;;;0.30;;
10991;SDS011;5549;47.028;15.514;2023-12-07T14:42:26;1.33;;;0.25;;
10991;SDS011;5549;47.028;15.514;2023-12-07T14:44:53;1.52;;;0.25;;
10991;SDS011;5549;47.028;15.514;2023-12-07T14:47:21;2.85;;;0.55;;
10991;SDS011;5549;47.028;15.514;2023-12-07T14:49:49;2.95;;;0.47;;
10991;SDS011;5549;47.028;15.514;2023-12-07T14:52:16;2.42;;;0.68;;
10991;SDS011;5549;47.028;15.514;2023-12-07T14:54:44;2.80;;;0.43;;
10991;SDS011;5549;47.028;15.514;2023-12-07T14:57:12;1.90;;;0.40;;
10991;SDS011;5549;47.028;15.514;2023-12-07T14:59:41;1.98;;;0.35;;
10991;SDS011;5549;47.028;15.514;2023-12-07T15:02:09;1.85;;;0.40;;